Durban, South Africa
Current Conditions -  °F | °C
As of 6:00 AM on Wednesday 26 Nov 2014 (Local Time) from FALE Reporting Station
Few Clouds Few Clouds  
Wind Chill: 68°   Ceiling: Unl
Heat Index: 68°   Visibility: 6mi
Dew Point: 63°   Wind: 2mph
Humidity: 83%   Direction: NA
Pressure: 30.09"   Gusts: NA
Location:  29.87°S, 30.99°E
Report Text: FALE 260400Z VRB02KT 9999 FEW040 20/17 Q1019 NOSIG
Loading
Personal Weather Stations






























Interactive Weather Map New forecast layout! Learn more

10-Day Weather Forecast

Advertisements
Track Severe Weather on mobile